sensor_id;sensor_type;location;lat;lon;timestamp;P1;durP1;ratioP1;P2;durP2;ratioP2
37943;SDS011;23767;42.024;23.086;2023-05-16T00:00:59;10.18;;;7.72;;
37943;SDS011;23767;42.024;23.086;2023-05-16T00:03:26;12.98;;;8.05;;
37943;SDS011;23767;42.024;23.086;2023-05-16T00:05:54;15.63;;;9.70;;
37943;SDS011;23767;42.024;23.086;2023-05-16T00:08:23;12.23;;;8.73;;
37943;SDS011;23767;42.024;23.086;2023-05-16T00:10:51;14.38;;;9.73;;
37943;SDS011;23767;42.024;23.086;2023-05-16T00:13:17;15.90;;;9.55;;
37943;SDS011;23767;42.024;23.086;2023-05-16T00:15:48;13.17;;;9.77;;
37943;SDS011;23767;42.024;23.086;2023-05-16T00:18:15;15.77;;;9.65;;
37943;SDS011;23767;42.024;23.086;2023-05-16T00:20:42;17.25;;;10.00;;
37943;SDS011;23767;42.024;23.086;2023-05-16T00:23:08;17.15;;;10.68;;
37943;SDS011;23767;42.024;23.086;2023-05-16T00:25:34;12.75;;;8.77;;
37943;SDS011;23767;42.024;23.086;2023-05-16T00:28:00;14.40;;;8.85;;
37943;SDS011;23767;42.024;23.086;2023-05-16T00:30:29;17.10;;;10.00;;
37943;SDS011;23767;42.024;23.086;2023-05-16T00:32:55;14.77;;;8.88;;
37943;SDS011;23767;42.024;23.086;2023-05-16T00:35:23;15.80;;;9.02;;
37943;SDS011;23767;42.024;23.086;2023-05-16T00:37:52;14.80;;;10.15;;
37943;SDS011;23767;42.024;23.086;2023-05-16T00:40:22;13.55;;;10.07;;
37943;SDS011;23767;42.024;23.086;2023-05-16T00:42:48;14.13;;;9.88;;
37943;SDS011;23767;42.024;23.086;2023-05-16T00:45:14;13.13;;;9.60;;
37943;SDS011;23767;42.024;23.086;2023-05-16T00:47:45;12.65;;;9.52;;
37943;SDS011;23767;42.024;23.086;2023-05-16T00:50:16;13.98;;;9.27;;
37943;SDS011;23767;42.024;23.086;2023-05-16T00:52:45;13.52;;;9.40;;
37943;SDS011;23767;42.024;23.086;2023-05-16T00:55:31;13.63;;;9.57;;
37943;SDS011;23767;42.024;23.086;2023-05-16T00:58:05;15.18;;;9.27;;
37943;SDS011;23767;42.024;23.086;2023-05-16T01:00:44;14.25;;;10.38;;
37943;SDS011;23767;42.024;23.086;2023-05-16T01:03:25;14.23;;;10.57;;
37943;SDS011;23767;42.024;23.086;2023-05-16T01:06:07;13.82;;;9.98;;
37943;SDS011;23767;42.024;23.086;2023-05-16T01:09:14;14.60;;;11.15;;
37943;SDS011;23767;42.024;23.086;2023-05-16T01:11:52;16.77;;;10.82;;
37943;SDS011;23767;42.024;23.086;2023-05-16T01:22:19;20.98;;;13.35;;
37943;SDS011;23767;42.024;23.086;2023-05-16T01:27:51;15.13;;;10.43;;
37943;SDS011;23767;42.024;23.086;2023-05-16T01:30:31;20.27;;;13.73;;
37943;SDS011;23767;42.024;23.086;2023-05-16T01:33:00;21.23;;;11.88;;
37943;SDS011;23767;42.024;23.086;2023-05-16T01:35:42;20.42;;;14.68;;
37943;SDS011;23767;42.024;23.086;2023-05-16T01:38:29;22.63;;;14.02;;
37943;SDS011;23767;42.024;23.086;2023-05-16T01:47:15;16.77;;;11.65;;
37943;SDS011;23767;42.024;23.086;2023-05-16T01:56:46;19.52;;;9.88;;
37943;SDS011;23767;42.024;23.086;2023-05-16T02:02:12;14.98;;;10.32;;
37943;SDS011;23767;42.024;23.086;2023-05-16T02:05:00;14.95;;;9.38;;
37943;SDS011;23767;42.024;23.086;2023-05-16T02:07:46;15.27;;;9.88;;
37943;SDS011;23767;42.024;23.086;2023-05-16T02:10:39;19.02;;;9.30;;
37943;SDS011;23767;42.024;23.086;2023-05-16T02:13:11;15.13;;;9.32;;
37943;SDS011;23767;42.024;23.086;2023-05-16T02:15:44;14.05;;;8.55;;
37943;SDS011;23767;42.024;23.086;2023-05-16T02:27:40;17.15;;;10.32;;
37943;SDS011;23767;42.024;23.086;2023-05-16T02:45:04;20.92;;;14.88;;
37943;SDS011;23767;42.024;23.086;2023-05-16T02:47:53;17.20;;;14.23;;
37943;SDS011;23767;42.024;23.086;2023-05-16T02:50:21;20.67;;;16.38;;
37943;SDS011;23767;42.024;23.086;2023-05-16T03:02:06;16.52;;;12.05;;
37943;SDS011;23767;42.024;23.086;2023-05-16T03:05:03;17.55;;;12.93;;
37943;SDS011;23767;42.024;23.086;2023-05-16T03:13:44;17.90;;;11.88;;
37943;SDS011;23767;42.024;23.086;2023-05-16T03:16:10;17.13;;;11.63;;
37943;SDS011;23767;42.024;23.086;2023-05-16T03:18:41;20.88;;;12.13;;
37943;SDS011;23767;42.024;23.086;2023-05-16T03:21:16;16.15;;;11.75;;
37943;SDS011;23767;42.024;23.086;2023-05-16T03:27:01;14.60;;;10.55;;
37943;SDS011;23767;42.024;23.086;2023-05-16T03:33:02;16.50;;;10.77;;
37943;SDS011;23767;42.024;23.086;2023-05-16T03:42:11;17.33;;;11.88;;
37943;SDS011;23767;42.024;23.086;2023-05-16T03:48:16;21.70;;;12.02;;
37943;SDS011;23767;42.024;23.086;2023-05-16T03:51:02;14.07;;;11.05;;
37943;SDS011;23767;42.024;23.086;2023-05-16T03:54:10;17.85;;;12.10;;
37943;SDS011;23767;42.024;23.086;2023-05-16T04:05:59;18.05;;;11.85;;
37943;SDS011;23767;42.024;23.086;2023-05-16T04:11:42;20.50;;;11.15;;
37943;SDS011;23767;42.024;23.086;2023-05-16T04:14:39;18.10;;;11.13;;
37943;SDS011;23767;42.024;23.086;2023-05-16T04:20:35;16.42;;;11.48;;
37943;SDS011;23767;42.024;23.086;2023-05-16T04:26:26;16.63;;;10.27;;
37943;SDS011;23767;42.024;23.086;2023-05-16T05:02:46;20.83;;;11.32;;
37943;SDS011;23767;42.024;23.086;2023-05-16T05:05:12;25.50;;;11.68;;
37943;SDS011;23767;42.024;23.086;2023-05-16T05:07:38;28.67;;;12.23;;
37943;SDS011;23767;42.024;23.086;2023-05-16T05:10:04;27.17;;;13.25;;
37943;SDS011;23767;42.024;23.086;2023-05-16T05:12:31;20.42;;;11.15;;
37943;SDS011;23767;42.024;23.086;2023-05-16T05:14:57;26.02;;;12.18;;
37943;SDS011;23767;42.024;23.086;2023-05-16T05:17:23;20.05;;;10.90;;
37943;SDS011;23767;42.024;23.086;2023-05-16T05:19:49;20.98;;;9.93;;
37943;SDS011;23767;42.024;23.086;2023-05-16T05:22:15;15.75;;;11.13;;
37943;SDS011;23767;42.024;23.086;2023-05-16T05:24:42;16.40;;;10.18;;
37943;SDS011;23767;42.024;23.086;2023-05-16T05:27:08;15.57;;;9.13;;
37943;SDS011;23767;42.024;23.086;2023-05-16T05:29:34;18.77;;;9.93;;
37943;SDS011;23767;42.024;23.086;2023-05-16T05:32:00;22.33;;;10.52;;
37943;SDS011;23767;42.024;23.086;2023-05-16T05:34:26;19.80;;;9.35;;
37943;SDS011;23767;42.024;23.086;2023-05-16T05:36:52;17.25;;;9.95;;
37943;SDS011;23767;42.024;23.086;2023-05-16T05:39:18;15.57;;;9.18;;
37943;SDS011;23767;42.024;23.086;2023-05-16T05:41:44;18.63;;;10.30;;
37943;SDS011;23767;42.024;23.086;2023-05-16T05:44:10;17.58;;;10.88;;
37943;SDS011;23767;42.024;23.086;2023-05-16T05:46:36;22.33;;;10.88;;
37943;SDS011;23767;42.024;23.086;2023-05-16T05:49:02;21.02;;;11.27;;
37943;SDS011;23767;42.024;23.086;2023-05-16T05:51:28;18.98;;;10.77;;
37943;SDS011;23767;42.024;23.086;2023-05-16T05:53:54;23.85;;;10.98;;
37943;SDS011;23767;42.024;23.086;2023-05-16T05:56:21;17.88;;;11.38;;
37943;SDS011;23767;42.024;23.086;2023-05-16T05:58:49;17.10;;;9.82;;
37943;SDS011;23767;42.024;23.086;2023-05-16T06:01:15;24.23;;;11.23;;
37943;SDS011;23767;42.024;23.086;2023-05-16T06:03:41;17.75;;;10.52;;
37943;SDS011;23767;42.024;23.086;2023-05-16T06:06:07;16.23;;;10.68;;
37943;SDS011;23767;42.024;23.086;2023-05-16T06:08:33;18.73;;;10.77;;
37943;SDS011;23767;42.024;23.086;2023-05-16T06:11:00;20.55;;;10.50;;
37943;SDS011;23767;42.024;23.086;2023-05-16T06:13:26;15.38;;;11.00;;
37943;SDS011;23767;42.024;23.086;2023-05-16T06:15:52;15.05;;;9.85;;
37943;SDS011;23767;42.024;23.086;2023-05-16T06:18:19;16.35;;;10.93;;
37943;SDS011;23767;42.024;23.086;2023-05-16T06:20:45;15.48;;;11.05;;
37943;SDS011;23767;42.024;23.086;2023-05-16T06:23:12;18.38;;;10.30;;
37943;SDS011;23767;42.024;23.086;2023-05-16T06:25:39;13.43;;;9.45;;
37943;SDS011;23767;42.024;23.086;2023-05-16T06:28:05;20.35;;;10.63;;
37943;SDS011;23767;42.024;23.086;2023-05-16T06:30:31;19.92;;;9.45;;
37943;SDS011;23767;42.024;23.086;2023-05-16T06:32:57;17.88;;;11.13;;
37943;SDS011;23767;42.024;23.086;2023-05-16T06:35:23;20.10;;;10.07;;
37943;SDS011;23767;42.024;23.086;2023-05-16T06:37:49;19.27;;;10.70;;
37943;SDS011;23767;42.024;23.086;2023-05-16T06:40:15;24.05;;;10.82;;
37943;SDS011;23767;42.024;23.086;2023-05-16T06:42:41;19.67;;;10.80;;
37943;SDS011;23767;42.024;23.086;2023-05-16T06:45:08;15.52;;;10.15;;
37943;SDS011;23767;42.024;23.086;2023-05-16T06:47:35;16.35;;;10.30;;
37943;SDS011;23767;42.024;23.086;2023-05-16T06:50:01;19.77;;;10.57;;
37943;SDS011;23767;42.024;23.086;2023-05-16T06:52:27;15.52;;;11.23;;
37943;SDS011;23767;42.024;23.086;2023-05-16T06:54:53;12.95;;;9.95;;
37943;SDS011;23767;42.024;23.086;2023-05-16T06:57:19;13.75;;;10.40;;
37943;SDS011;23767;42.024;23.086;2023-05-16T06:59:45;18.38;;;10.43;;
37943;SDS011;23767;42.024;23.086;2023-05-16T07:02:11;14.23;;;10.13;;
37943;SDS011;23767;42.024;23.086;2023-05-16T07:04:37;15.35;;;10.05;;
37943;SDS011;23767;42.024;23.086;2023-05-16T07:07:04;16.42;;;10.60;;
37943;SDS011;23767;42.024;23.086;2023-05-16T07:09:32;16.15;;;9.10;;
37943;SDS011;23767;42.024;23.086;2023-05-16T07:11:58;15.68;;;9.00;;
37943;SDS011;23767;42.024;23.086;2023-05-16T07:14:24;18.13;;;10.40;;
37943;SDS011;23767;42.024;23.086;2023-05-16T07:16:50;12.50;;;9.70;;
37943;SDS011;23767;42.024;23.086;2023-05-16T07:19:16;20.98;;;9.65;;
37943;SDS011;23767;42.024;23.086;2023-05-16T07:21:42;19.30;;;9.68;;
37943;SDS011;23767;42.024;23.086;2023-05-16T07:24:08;13.63;;;9.00;;
37943;SDS011;23767;42.024;23.086;2023-05-16T07:26:34;14.93;;;9.68;;
37943;SDS011;23767;42.024;23.086;2023-05-16T07:29:00;17.92;;;9.27;;
37943;SDS011;23767;42.024;23.086;2023-05-16T07:31:28;16.10;;;9.73;;
37943;SDS011;23767;42.024;23.086;2023-05-16T07:33:55;15.30;;;8.73;;
37943;SDS011;23767;42.024;23.086;2023-05-16T07:36:21;21.90;;;9.95;;
37943;SDS011;23767;42.024;23.086;2023-05-16T07:38:47;18.17;;;9.35;;
37943;SDS011;23767;42.024;23.086;2023-05-16T07:41:13;13.45;;;8.38;;
37943;SDS011;23767;42.024;23.086;2023-05-16T07:43:39;13.52;;;8.82;;
37943;SDS011;23767;42.024;23.086;2023-05-16T07:46:05;13.88;;;8.65;;
37943;SDS011;23767;42.024;23.086;2023-05-16T07:48:31;14.23;;;8.70;;
37943;SDS011;23767;42.024;23.086;2023-05-16T07:50:57;12.80;;;9.68;;
37943;SDS011;23767;42.024;23.086;2023-05-16T07:53:23;15.13;;;8.52;;
37943;SDS011;23767;42.024;23.086;2023-05-16T07:55:49;21.80;;;9.68;;
37943;SDS011;23767;42.024;23.086;2023-05-16T07:58:15;13.80;;;8.90;;
37943;SDS011;23767;42.024;23.086;2023-05-16T08:00:41;12.63;;;9.18;;
37943;SDS011;23767;42.024;23.086;2023-05-16T08:03:07;15.27;;;10.32;;
37943;SDS011;23767;42.024;23.086;2023-05-16T08:05:33;15.95;;;9.48;;
37943;SDS011;23767;42.024;23.086;2023-05-16T08:07:59;13.57;;;8.20;;
37943;SDS011;23767;42.024;23.086;2023-05-16T08:10:25;13.98;;;8.63;;
37943;SDS011;23767;42.024;23.086;2023-05-16T08:12:51;14.98;;;9.23;;
37943;SDS011;23767;42.024;23.086;2023-05-16T08:15:18;14.88;;;9.57;;
37943;SDS011;23767;42.024;23.086;2023-05-16T08:17:44;13.30;;;8.82;;
37943;SDS011;23767;42.024;23.086;2023-05-16T08:20:10;12.77;;;9.27;;
37943;SDS011;23767;42.024;23.086;2023-05-16T08:22:36;13.45;;;9.80;;
37943;SDS011;23767;42.024;23.086;2023-05-16T08:25:02;17.35;;;10.10;;
37943;SDS011;23767;42.024;23.086;2023-05-16T08:27:29;12.23;;;9.20;;
37943;SDS011;23767;42.024;23.086;2023-05-16T08:29:55;11.52;;;9.23;;
37943;SDS011;23767;42.024;23.086;2023-05-16T08:32:21;15.63;;;9.27;;
37943;SDS011;23767;42.024;23.086;2023-05-16T08:34:47;15.75;;;9.00;;
37943;SDS011;23767;42.024;23.086;2023-05-16T08:37:13;13.40;;;8.50;;
37943;SDS011;23767;42.024;23.086;2023-05-16T08:39:39;16.60;;;8.95;;
37943;SDS011;23767;42.024;23.086;2023-05-16T08:42:05;12.15;;;7.78;;
37943;SDS011;23767;42.024;23.086;2023-05-16T08:44:32;14.18;;;8.70;;
37943;SDS011;23767;42.024;23.086;2023-05-16T08:47:00;14.93;;;9.25;;
37943;SDS011;23767;42.024;23.086;2023-05-16T08:49:28;17.10;;;8.65;;
37943;SDS011;23767;42.024;23.086;2023-05-16T08:51:55;13.50;;;8.70;;
37943;SDS011;23767;42.024;23.086;2023-05-16T08:54:22;15.98;;;8.82;;
37943;SDS011;23767;42.024;23.086;2023-05-16T08:56:48;11.70;;;7.90;;
37943;SDS011;23767;42.024;23.086;2023-05-16T08:59:15;11.65;;;8.02;;
37943;SDS011;23767;42.024;23.086;2023-05-16T09:01:42;11.05;;;7.72;;
37943;SDS011;23767;42.024;23.086;2023-05-16T09:04:08;11.27;;;8.57;;
37943;SDS011;23767;42.024;23.086;2023-05-16T09:06:37;11.88;;;7.95;;
37943;SDS011;23767;42.024;23.086;2023-05-16T09:09:03;13.15;;;7.93;;
37943;SDS011;23767;42.024;23.086;2023-05-16T09:11:32;14.50;;;8.23;;
37943;SDS011;23767;42.024;23.086;2023-05-16T09:13:59;13.77;;;7.70;;
37943;SDS011;23767;42.024;23.086;2023-05-16T09:16:25;14.75;;;8.68;;
37943;SDS011;23767;42.024;23.086;2023-05-16T09:18:58;17.27;;;7.63;;
37943;SDS011;23767;42.024;23.086;2023-05-16T09:21:29;13.55;;;7.28;;
37943;SDS011;23767;42.024;23.086;2023-05-16T09:23:56;14.10;;;8.07;;
37943;SDS011;23767;42.024;23.086;2023-05-16T09:26:22;11.13;;;7.03;;
37943;SDS011;23767;42.024;23.086;2023-05-16T09:28:48;11.85;;;7.90;;
37943;SDS011;23767;42.024;23.086;2023-05-16T09:31:22;13.70;;;7.50;;
37943;SDS011;23767;42.024;23.086;2023-05-16T09:33:50;13.68;;;7.28;;
37943;SDS011;23767;42.024;23.086;2023-05-16T09:36:16;11.85;;;7.07;;
37943;SDS011;23767;42.024;23.086;2023-05-16T09:38:43;10.63;;;6.68;;
37943;SDS011;23767;42.024;23.086;2023-05-16T09:41:09;12.15;;;7.20;;
37943;SDS011;23767;42.024;23.086;2023-05-16T09:43:39;14.05;;;7.03;;
37943;SDS011;23767;42.024;23.086;2023-05-16T09:46:05;12.93;;;7.10;;
37943;SDS011;23767;42.024;23.086;2023-05-16T09:48:31;13.13;;;7.18;;
37943;SDS011;23767;42.024;23.086;2023-05-16T09:50:57;16.38;;;7.47;;
37943;SDS011;23767;42.024;23.086;2023-05-16T09:53:31;13.38;;;6.70;;
37943;SDS011;23767;42.024;23.086;2023-05-16T09:56:04;9.23;;;6.30;;
37943;SDS011;23767;42.024;23.086;2023-05-16T09:58:32;13.77;;;7.22;;
37943;SDS011;23767;42.024;23.086;2023-05-16T10:00:59;14.48;;;7.10;;
37943;SDS011;23767;42.024;23.086;2023-05-16T10:03:26;10.15;;;6.63;;
37943;SDS011;23767;42.024;23.086;2023-05-16T10:05:53;10.63;;;7.32;;
37943;SDS011;23767;42.024;23.086;2023-05-16T10:08:23;11.68;;;7.00;;
37943;SDS011;23767;42.024;23.086;2023-05-16T10:10:50;10.30;;;6.80;;
37943;SDS011;23767;42.024;23.086;2023-05-16T10:13:19;19.40;;;7.60;;
37943;SDS011;23767;42.024;23.086;2023-05-16T10:15:46;12.27;;;5.90;;
37943;SDS011;23767;42.024;23.086;2023-05-16T10:18:12;11.27;;;5.80;;
37943;SDS011;23767;42.024;23.086;2023-05-16T10:20:43;10.68;;;6.05;;
37943;SDS011;23767;42.024;23.086;2023-05-16T10:23:11;15.63;;;6.10;;
37943;SDS011;23767;42.024;23.086;2023-05-16T10:25:40;16.60;;;7.05;;
37943;SDS011;23767;42.024;23.086;2023-05-16T10:28:07;13.48;;;6.45;;
37943;SDS011;23767;42.024;23.086;2023-05-16T10:30:33;15.73;;;6.57;;
37943;SDS011;23767;42.024;23.086;2023-05-16T10:33:00;19.27;;;6.47;;
37943;SDS011;23767;42.024;23.086;2023-05-16T10:35:26;13.45;;;6.30;;
37943;SDS011;23767;42.024;23.086;2023-05-16T10:37:52;11.70;;;6.03;;
37943;SDS011;23767;42.024;23.086;2023-05-16T10:40:20;17.00;;;6.40;;
37943;SDS011;23767;42.024;23.086;2023-05-16T10:42:56;18.25;;;5.75;;
37943;SDS011;23767;42.024;23.086;2023-05-16T10:45:22;12.75;;;5.50;;
37943;SDS011;23767;42.024;23.086;2023-05-16T10:56:04;10.53;;;3.97;;
37943;SDS011;23767;42.024;23.086;2023-05-16T11:04:06;15.38;;;3.75;;
37943;SDS011;23767;42.024;23.086;2023-05-16T11:06:33;17.20;;;4.25;;
37943;SDS011;23767;42.024;23.086;2023-05-16T11:14:03;14.57;;;3.97;;
37943;SDS011;23767;42.024;23.086;2023-05-16T11:16:29;17.63;;;3.97;;
37943;SDS011;23767;42.024;23.086;2023-05-16T11:19:03;12.13;;;3.45;;
37943;SDS011;23767;42.024;23.086;2023-05-16T11:24:27;10.90;;;3.20;;
37943;SDS011;23767;42.024;23.086;2023-05-16T11:26:54;11.30;;;2.92;;
37943;SDS011;23767;42.024;23.086;2023-05-16T11:29:20;11.60;;;3.22;;
37943;SDS011;23767;42.024;23.086;2023-05-16T11:31:46;10.52;;;2.80;;
37943;SDS011;23767;42.024;23.086;2023-05-16T11:34:12;12.82;;;3.33;;
37943;SDS011;23767;42.024;23.086;2023-05-16T11:36:38;16.92;;;4.07;;
37943;SDS011;23767;42.024;23.086;2023-05-16T11:39:07;11.80;;;3.13;;
37943;SDS011;23767;42.024;23.086;2023-05-16T11:41:34;13.27;;;3.42;;
37943;SDS011;23767;42.024;23.086;2023-05-16T11:44:00;11.15;;;3.40;;
37943;SDS011;23767;42.024;23.086;2023-05-16T11:46:26;13.00;;;3.47;;
37943;SDS011;23767;42.024;23.086;2023-05-16T11:48:52;14.00;;;3.05;;
37943;SDS011;23767;42.024;23.086;2023-05-16T11:51:19;10.82;;;3.08;;
37943;SDS011;23767;42.024;23.086;2023-05-16T11:53:48;11.73;;;2.95;;
37943;SDS011;23767;42.024;23.086;2023-05-16T11:56:14;14.02;;;3.70;;
37943;SDS011;23767;42.024;23.086;2023-05-16T11:58:40;12.18;;;3.08;;
37943;SDS011;23767;42.024;23.086;2023-05-16T12:01:06;11.43;;;3.63;;
37943;SDS011;23767;42.024;23.086;2023-05-16T12:03:34;10.02;;;3.15;;
37943;SDS011;23767;42.024;23.086;2023-05-16T12:06:00;16.23;;;3.58;;
37943;SDS011;23767;42.024;23.086;2023-05-16T12:08:27;16.65;;;3.72;;
37943;SDS011;23767;42.024;23.086;2023-05-16T12:10:53;10.73;;;3.45;;
37943;SDS011;23767;42.024;23.086;2023-05-16T12:13:20;13.65;;;3.45;;
37943;SDS011;23767;42.024;23.086;2023-05-16T12:15:46;12.00;;;3.58;;
37943;SDS011;23767;42.024;23.086;2023-05-16T12:18:13;13.90;;;3.58;;
37943;SDS011;23767;42.024;23.086;2023-05-16T12:20:39;9.93;;;3.75;;
37943;SDS011;23767;42.024;23.086;2023-05-16T12:23:09;15.00;;;4.95;;
37943;SDS011;23767;42.024;23.086;2023-05-16T12:25:35;11.02;;;4.05;;
37943;SDS011;23767;42.024;23.086;2023-05-16T12:28:06;17.13;;;4.45;;
37943;SDS011;23767;42.024;23.086;2023-05-16T12:30:32;13.25;;;3.67;;
37943;SDS011;23767;42.024;23.086;2023-05-16T12:35:24;13.00;;;4.03;;
37943;SDS011;23767;42.024;23.086;2023-05-16T12:37:50;16.52;;;4.05;;
37943;SDS011;23767;42.024;23.086;2023-05-16T12:40:17;10.32;;;3.95;;
37943;SDS011;23767;42.024;23.086;2023-05-16T12:42:47;10.45;;;3.60;;
37943;SDS011;23767;42.024;23.086;2023-05-16T12:45:15;9.77;;;3.33;;
37943;SDS011;23767;42.024;23.086;2023-05-16T12:47:41;17.08;;;4.10;;
37943;SDS011;23767;42.024;23.086;2023-05-16T12:50:10;14.40;;;4.05;;
37943;SDS011;23767;42.024;23.086;2023-05-16T12:52:45;11.38;;;3.67;;
37943;SDS011;23767;42.024;23.086;2023-05-16T12:55:12;11.30;;;3.53;;
37943;SDS011;23767;42.024;23.086;2023-05-16T13:00:58;14.60;;;3.85;;
37943;SDS011;23767;42.024;23.086;2023-05-16T13:03:50;8.27;;;3.80;;
37943;SDS011;23767;42.024;23.086;2023-05-16T13:09:32;10.65;;;4.50;;
37943;SDS011;23767;42.024;23.086;2023-05-16T13:33:51;9.73;;;4.35;;
37943;SDS011;23767;42.024;23.086;2023-05-16T13:36:41;11.65;;;4.32;;
37943;SDS011;23767;42.024;23.086;2023-05-16T13:48:27;18.13;;;4.60;;
37943;SDS011;23767;42.024;23.086;2023-05-16T13:54:18;15.25;;;4.35;;
37943;SDS011;23767;42.024;23.086;2023-05-16T13:57:05;12.98;;;4.20;;
37943;SDS011;23767;42.024;23.086;2023-05-16T14:24:40;10.77;;;4.20;;
37943;SDS011;23767;42.024;23.086;2023-05-16T14:37:03;11.13;;;4.82;;
37943;SDS011;23767;42.024;23.086;2023-05-16T14:52:04;12.95;;;4.57;;
37943;SDS011;23767;42.024;23.086;2023-05-16T15:01:11;11.05;;;5.57;;
37943;SDS011;23767;42.024;23.086;2023-05-16T15:04:06;12.93;;;5.40;;
37943;SDS011;23767;42.024;23.086;2023-05-16T15:34:14;16.13;;;6.63;;
37943;SDS011;23767;42.024;23.086;2023-05-16T15:49:39;12.77;;;6.25;;
37943;SDS011;23767;42.024;23.086;2023-05-16T15:55:52;12.00;;;5.70;;
37943;SDS011;23767;42.024;23.086;2023-05-16T15:58:23;15.55;;;5.85;;
37943;SDS011;23767;42.024;23.086;2023-05-16T16:01:18;10.10;;;5.00;;
37943;SDS011;23767;42.024;23.086;2023-05-16T16:07:10;10.32;;;5.38;;
37943;SDS011;23767;42.024;23.086;2023-05-16T16:19:57;15.88;;;6.00;;
37943;SDS011;23767;42.024;23.086;2023-05-16T16:32:16;10.00;;;5.68;;
37943;SDS011;23767;42.024;23.086;2023-05-16T17:18:35;12.90;;;4.45;;
37943;SDS011;23767;42.024;23.086;2023-05-16T17:21:23;10.43;;;5.40;;
37943;SDS011;23767;42.024;23.086;2023-05-16T17:27:16;11.57;;;5.32;;
37943;SDS011;23767;42.024;23.086;2023-05-16T17:29:45;18.27;;;6.35;;
37943;SDS011;23767;42.024;23.086;2023-05-16T17:32:11;15.85;;;6.00;;
37943;SDS011;23767;42.024;23.086;2023-05-16T17:34:37;9.82;;;5.68;;
37943;SDS011;23767;42.024;23.086;2023-05-16T17:37:05;13.35;;;5.80;;
37943;SDS011;23767;42.024;23.086;2023-05-16T17:39:34;12.95;;;5.30;;
37943;SDS011;23767;42.024;23.086;2023-05-16T17:42:01;13.73;;;6.28;;
37943;SDS011;23767;42.024;23.086;2023-05-16T17:44:32;10.25;;;5.95;;
37943;SDS011;23767;42.024;23.086;2023-05-16T17:47:01;11.75;;;5.68;;
37943;SDS011;23767;42.024;23.086;2023-05-16T17:49:28;11.15;;;5.18;;
37943;SDS011;23767;42.024;23.086;2023-05-16T17:52:04;11.98;;;5.55;;
37943;SDS011;23767;42.024;23.086;2023-05-16T17:54:33;9.77;;;5.22;;
37943;SDS011;23767;42.024;23.086;2023-05-16T17:56:59;10.32;;;4.82;;
37943;SDS011;23767;42.024;23.086;2023-05-16T17:59:28;12.35;;;4.75;;
37943;SDS011;23767;42.024;23.086;2023-05-16T18:02:09;13.15;;;5.00;;
37943;SDS011;23767;42.024;23.086;2023-05-16T18:04:41;13.68;;;5.50;;
37943;SDS011;23767;42.024;23.086;2023-05-16T18:07:25;16.80;;;5.93;;
37943;SDS011;23767;42.024;23.086;2023-05-16T18:09:53;17.20;;;6.20;;
37943;SDS011;23767;42.024;23.086;2023-05-16T18:12:24;16.83;;;6.60;;
37943;SDS011;23767;42.024;23.086;2023-05-16T18:15:02;13.85;;;7.40;;
37943;SDS011;23767;42.024;23.086;2023-05-16T18:17:31;14.10;;;5.63;;
37943;SDS011;23767;42.024;23.086;2023-05-16T18:19:58;11.85;;;6.03;;
37943;SDS011;23767;42.024;23.086;2023-05-16T18:22:37;13.20;;;6.10;;
37943;SDS011;23767;42.024;23.086;2023-05-16T18:25:03;15.68;;;6.35;;
37943;SDS011;23767;42.024;23.086;2023-05-16T18:27:51;19.00;;;8.90;;
37943;SDS011;23767;42.024;23.086;2023-05-16T18:30:19;15.60;;;6.40;;
37943;SDS011;23767;42.024;23.086;2023-05-16T18:35:38;13.55;;;5.25;;
37943;SDS011;23767;42.024;23.086;2023-05-16T18:38:07;12.20;;;4.85;;
37943;SDS011;23767;42.024;23.086;2023-05-16T18:40:36;11.35;;;4.97;;
37943;SDS011;23767;42.024;23.086;2023-05-16T18:43:05;14.93;;;5.45;;
37943;SDS011;23767;42.024;23.086;2023-05-16T18:45:33;12.00;;;5.15;;
37943;SDS011;23767;42.024;23.086;2023-05-16T18:48:02;12.73;;;4.88;;
37943;SDS011;23767;42.024;23.086;2023-05-16T18:50:32;10.30;;;4.57;;
37943;SDS011;23767;42.024;23.086;2023-05-16T18:52:58;14.70;;;4.85;;
37943;SDS011;23767;42.024;23.086;2023-05-16T18:55:27;16.08;;;5.25;;
37943;SDS011;23767;42.024;23.086;2023-05-16T18:57:55;18.45;;;5.15;;
37943;SDS011;23767;42.024;23.086;2023-05-16T19:00:24;14.40;;;4.95;;
37943;SDS011;23767;42.024;23.086;2023-05-16T19:02:55;13.70;;;4.88;;
37943;SDS011;23767;42.024;23.086;2023-05-16T19:05:24;15.32;;;4.45;;
37943;SDS011;23767;42.024;23.086;2023-05-16T19:08:07;11.40;;;3.92;;
37943;SDS011;23767;42.024;23.086;2023-05-16T19:10:41;11.77;;;4.82;;
37943;SDS011;23767;42.024;23.086;2023-05-16T19:13:27;10.13;;;3.78;;
37943;SDS011;23767;42.024;23.086;2023-05-16T19:15:56;17.08;;;4.90;;
37943;SDS011;23767;42.024;23.086;2023-05-16T19:18:45;14.02;;;4.90;;
37943;SDS011;23767;42.024;23.086;2023-05-16T19:24:25;12.02;;;4.05;;
37943;SDS011;23767;42.024;23.086;2023-05-16T19:32:39;14.45;;;5.32;;
37943;SDS011;23767;42.024;23.086;2023-05-16T19:38:17;14.00;;;4.75;;
37943;SDS011;23767;42.024;23.086;2023-05-16T19:41:01;13.18;;;4.70;;
37943;SDS011;23767;42.024;23.086;2023-05-16T19:46:41;11.40;;;4.30;;
37943;SDS011;23767;42.024;23.086;2023-05-16T19:49:07;11.52;;;4.45;;
37943;SDS011;23767;42.024;23.086;2023-05-16T19:51:48;14.52;;;4.88;;
37943;SDS011;23767;42.024;23.086;2023-05-16T20:28:31;16.70;;;4.43;;
37943;SDS011;23767;42.024;23.086;2023-05-16T20:31:26;21.63;;;5.07;;
37943;SDS011;23767;42.024;23.086;2023-05-16T20:34:23;16.30;;;3.75;;
37943;SDS011;23767;42.024;23.086;2023-05-16T20:37:00;13.45;;;4.00;;
37943;SDS011;23767;42.024;23.086;2023-05-16T20:39:54;14.30;;;4.20;;
37943;SDS011;23767;42.024;23.086;2023-05-16T20:42:47;17.75;;;5.03;;
37943;SDS011;23767;42.024;23.086;2023-05-16T21:01:28;13.90;;;4.10;;
37943;SDS011;23767;42.024;23.086;2023-05-16T21:07:31;16.23;;;4.03;;
37943;SDS011;23767;42.024;23.086;2023-05-16T21:16:33;19.33;;;4.18;;
37943;SDS011;23767;42.024;23.086;2023-05-16T21:18:59;14.15;;;3.45;;
37943;SDS011;23767;42.024;23.086;2023-05-16T21:21:27;15.10;;;4.28;;
37943;SDS011;23767;42.024;23.086;2023-05-16T21:23:54;13.75;;;3.78;;
37943;SDS011;23767;42.024;23.086;2023-05-16T21:26:20;15.05;;;4.65;;
37943;SDS011;23767;42.024;23.086;2023-05-16T21:28:46;16.08;;;4.00;;
37943;SDS011;23767;42.024;23.086;2023-05-16T21:31:12;13.63;;;3.75;;
37943;SDS011;23767;42.024;23.086;2023-05-16T21:33:38;14.75;;;4.13;;
37943;SDS011;23767;42.024;23.086;2023-05-16T21:36:05;18.65;;;4.10;;
37943;SDS011;23767;42.024;23.086;2023-05-16T21:38:31;16.83;;;4.28;;
37943;SDS011;23767;42.024;23.086;2023-05-16T21:40:57;14.85;;;4.18;;
37943;SDS011;23767;42.024;23.086;2023-05-16T21:43:23;13.00;;;4.10;;
37943;SDS011;23767;42.024;23.086;2023-05-16T21:45:49;14.05;;;4.72;;
37943;SDS011;23767;42.024;23.086;2023-05-16T21:48:15;13.23;;;4.35;;
37943;SDS011;23767;42.024;23.086;2023-05-16T21:50:41;12.23;;;4.43;;
37943;SDS011;23767;42.024;23.086;2023-05-16T21:53:08;19.95;;;4.10;;
37943;SDS011;23767;42.024;23.086;2023-05-16T21:55:34;15.30;;;3.88;;
37943;SDS011;23767;42.024;23.086;2023-05-16T21:58:00;13.30;;;4.13;;
37943;SDS011;23767;42.024;23.086;2023-05-16T22:00:26;12.80;;;3.78;;
37943;SDS011;23767;42.024;23.086;2023-05-16T22:02:52;12.80;;;3.25;;